Time;durP1;ratioP1;P1;durP2;ratioP2;P2;SDS_P1;SDS_P2;PMS_P1;PMS_P2;Temp;Humidity;BMP_temperature;BMP_pressure;BME280_temperature;BME280_humidity;BME280_pressure;Samples;Min_cycle;Max_cycle;Signal;HPM_P1;HPM_P2
2023/04/06 00:01:02;;;;;;;;;;;2.30;99.90;;;;;;5006398;28;19921;-61
2023/04/06 00:03:27;;;;;;;;;;;2.20;99.90;;;;;;5008974;28;19969;-60
2023/04/06 00:05:53;;;;;;;;;;;2.00;99.90;;;;;;5006666;28;19917;-59
2023/04/06 00:08:18;;;;;;;;;;;2.10;99.90;;;;;;5008569;28;19913;-61
2023/04/06 00:10:44;;;;;;;;;;;2.10;99.90;;;;;;5008043;28;19940;-60
2023/04/06 00:13:09;;;;;;;;;;;2.10;99.90;;;;;;5013230;28;19939;-59
2023/04/06 00:15:35;;;;;;;;;;;2.10;99.90;;;;;;5011651;28;19928;-59
2023/04/06 00:18:01;;;;;;;;;;;2.10;99.90;;;;;;5011697;28;19917;-61
2023/04/06 00:20:27;;;;;;;;;;;2.20;99.90;;;;;;5010557;28;19922;-59
2023/04/06 00:22:53;;;;;;;;;;;2.20;99.90;;;;;;5012708;28;20280;-61
2023/04/06 00:25:19;;;;;;;;;;;2.30;99.90;;;;;;5009769;28;22010;-61
2023/04/06 00:27:44;;;;;;;;;;;2.30;99.90;;;;;;5009380;28;19949;-58
2023/04/06 00:30:10;;;;;;;;;;;2.20;99.90;;;;;;5004902;28;19914;-56
2023/04/06 00:32:35;;;;;;;;;;;2.10;99.90;;;;;;5014243;28;19948;-59
2023/04/06 00:35:02;;;;;;;;;;;1.80;99.90;;;;;;5010706;28;21081;-62
2023/04/06 00:37:27;;;;;;;;;;;1.60;99.90;;;;;;5012855;28;19913;-62
2023/04/06 00:39:53;;;;;;;;;;;1.50;99.90;;;;;;5007306;28;19927;-58
2023/04/06 00:42:25;;;;;;;;;;;1.50;99.90;;;;;;5009637;28;20016;-60
2023/04/06 00:44:51;;;;;;;;;;;1.50;99.90;;;;;;5009020;28;19968;-60
2023/04/06 00:47:17;;;;;;;;;;;1.50;99.90;;;;;;5010338;28;19968;-60
2023/04/06 00:49:42;;;;;;;;;;;1.50;99.90;;;;;;5007463;28;20555;-60
2023/04/06 00:52:07;;;;;;;;;;;1.50;99.90;;;;;;5006568;28;19914;-61
2023/04/06 00:54:33;;;;;;;;;;;1.50;99.90;;;;;;5010873;28;19914;-58
2023/04/06 00:56:58;;;;;;;;;;;1.60;99.90;;;;;;5008604;28;19924;-60
2023/04/06 00:59:24;;;;;;;;;;;1.50;99.90;;;;;;5008576;28;20414;-58
2023/04/06 01:01:49;;;;;;;;;;;1.50;99.90;;;;;;5011822;28;19914;-58
2023/04/06 01:04:15;;;;;;;;;;;1.50;99.90;;;;;;5010413;28;19918;-61
2023/04/06 01:06:40;;;;;;;;;;;1.60;99.90;;;;;;5011782;28;20016;-60
2023/04/06 01:09:06;;;;;;;;;;;1.60;99.90;;;;;;5011078;28;19917;-61
2023/04/06 01:11:32;;;;;;;;;;;1.70;99.90;;;;;;5009563;28;19917;-63
2023/04/06 01:13:57;;;;;;;;;;;1.70;99.90;;;;;;5008177;28;19914;-62
2023/04/06 01:16:23;;;;;;;;;;;1.70;99.90;;;;;;5011031;28;19920;-62
2023/04/06 01:18:50;;;;;;;;;;;1.70;99.90;;;;;;5006742;28;20016;-61
2023/04/06 01:21:16;;;;;;;;;;;1.60;99.90;;;;;;5009419;28;19918;-65
2023/04/06 01:23:42;;;;;;;;;;;1.50;99.90;;;;;;5007863;28;19929;-61
2023/04/06 01:26:08;;;;;;;;;;;1.50;99.90;;;;;;5006559;28;20715;-63
2023/04/06 01:28:33;;;;;;;;;;;1.30;99.90;;;;;;5008470;28;19920;-61
2023/04/06 01:30:59;;;;;;;;;;;1.10;99.90;;;;;;5007557;28;19975;-60
2023/04/06 01:33:24;;;;;;;;;;;1.00;99.90;;;;;;5011404;28;19917;-63
2023/04/06 01:35:50;;;;;;;;;;;1.00;99.90;;;;;;5007239;28;20410;-58
2023/04/06 01:38:16;;;;;;;;;;;0.90;99.90;;;;;;5006568;28;19921;-64
2023/04/06 01:40:41;;;;;;;;;;;0.90;99.90;;;;;;5012337;28;19925;-61
2023/04/06 01:43:06;;;;;;;;;;;0.90;99.90;;;;;;5007091;28;20379;-60
2023/04/06 01:45:32;;;;;;;;;;;0.90;99.90;;;;;;5011727;28;19914;-61
2023/04/06 01:47:57;;;;;;;;;;;1.00;99.90;;;;;;5007589;28;19966;-59
2023/04/06 01:50:23;;;;;;;;;;;1.00;99.90;;;;;;5008398;28;19925;-60
2023/04/06 01:52:49;;;;;;;;;;;1.00;99.90;;;;;;5004698;28;19920;-61
2023/04/06 01:55:15;;;;;;;;;;;1.00;99.90;;;;;;5011523;28;20287;-62
2023/04/06 01:57:40;;;;;;;;;;;1.00;99.90;;;;;;5006042;28;20000;-61
2023/04/06 02:00:06;;;;;;;;;;;1.00;99.90;;;;;;5010336;28;19928;-59
2023/04/06 02:02:31;;;;;;;;;;;0.90;99.90;;;;;;5006178;28;20012;-58
2023/04/06 02:04:57;;;;;;;;;;;0.90;99.90;;;;;;5008967;28;19913;-60
2023/04/06 02:07:22;;;;;;;;;;;1.00;99.90;;;;;;5005994;28;19914;-62
2023/04/06 02:09:48;;;;;;;;;;;1.00;99.90;;;;;;5007543;28;20307;-59
2023/04/06 02:12:13;;;;;;;;;;;1.00;99.90;;;;;;5008301;28;19920;-61
2023/04/06 02:14:39;;;;;;;;;;;1.00;99.90;;;;;;5006363;28;19932;-61
2023/04/06 02:17:05;;;;;;;;;;;0.90;99.90;;;;;;5005645;28;20449;-59
2023/04/06 02:19:30;;;;;;;;;;;0.90;99.90;;;;;;5005333;28;19996;-61
2023/04/06 02:21:55;;;;;;;;;;;0.80;99.90;;;;;;5007050;28;19917;-60
2023/04/06 02:24:21;;;;;;;;;;;0.80;99.90;;;;;;5009192;28;20383;-56
2023/04/06 02:26:46;;;;;;;;;;;0.80;99.90;;;;;;5009984;28;19913;-61
2023/04/06 02:29:12;;;;;;;;;;;0.80;99.90;;;;;;5009129;28;19917;-59
2023/04/06 02:31:37;;;;;;;;;;;0.80;99.90;;;;;;5006111;28;19913;-61
2023/04/06 02:34:03;;;;;;;;;;;0.80;99.90;;;;;;5007802;28;20399;-59
2023/04/06 02:36:28;;;;;;;;;;;0.90;99.90;;;;;;5008198;28;19913;-61
2023/04/06 02:38:54;;;;;;;;;;;1.00;99.90;;;;;;5009249;28;19936;-58
2023/04/06 02:41:19;;;;;;;;;;;0.90;99.90;;;;;;5007786;28;19913;-58
2023/04/06 02:43:44;;;;;;;;;;;0.90;99.90;;;;;;5005756;28;19976;-59
2023/04/06 02:46:10;;;;;;;;;;;0.80;99.90;;;;;;5006393;28;19946;-59
2023/04/06 02:48:36;;;;;;;;;;;0.70;99.90;;;;;;5006730;28;19929;-58
2023/04/06 02:51:02;;;;;;;;;;;0.60;99.90;;;;;;5008109;28;20039;-61
2023/04/06 02:53:27;;;;;;;;;;;0.60;99.90;;;;;;5009741;28;20008;-59
2023/04/06 02:55:53;;;;;;;;;;;0.60;99.90;;;;;;5009810;28;19924;-62
2023/04/06 02:58:18;;;;;;;;;;;0.60;99.90;;;;;;5006744;28;19917;-58
2023/04/06 03:00:45;;;;;;;;;;;0.60;99.90;;;;;;5006361;28;20431;-60
2023/04/06 03:03:10;;;;;;;;;;;0.60;99.90;;;;;;5006722;28;19918;-60
2023/04/06 03:05:36;;;;;;;;;;;0.60;99.90;;;;;;5008421;28;19928;-57
2023/04/06 03:08:01;;;;;;;;;;;0.60;99.90;;;;;;5010480;28;19983;-56
2023/04/06 03:10:26;;;;;;;;;;;0.60;99.90;;;;;;5010716;28;19959;-57
2023/04/06 03:12:52;;;;;;;;;;;0.70;99.90;;;;;;5005703;28;19914;-58
2023/04/06 03:15:17;;;;;;;;;;;0.60;99.90;;;;;;5008456;28;19913;-58
2023/04/06 03:17:43;;;;;;;;;;;0.60;99.90;;;;;;5007536;28;20008;-58
2023/04/06 03:20:08;;;;;;;;;;;0.50;99.90;;;;;;5007863;28;19913;-57
2023/04/06 03:22:34;;;;;;;;;;;0.40;99.90;;;;;;5006923;28;19967;-60
2023/04/06 03:24:59;;;;;;;;;;;0.40;99.90;;;;;;5007143;28;20298;-61
2023/04/06 03:27:25;;;;;;;;;;;0.50;99.90;;;;;;5005631;28;19914;-61
2023/04/06 03:29:50;;;;;;;;;;;0.50;99.90;;;;;;5008289;28;20536;-59
2023/04/06 03:32:16;;;;;;;;;;;0.50;99.90;;;;;;5008823;28;20284;-63
2023/04/06 03:34:41;;;;;;;;;;;0.60;99.90;;;;;;5006420;28;19945;-60
2023/04/06 03:37:06;;;;;;;;;;;0.70;99.90;;;;;;5007250;28;19913;-61
2023/04/06 03:39:32;;;;;;;;;;;0.60;99.90;;;;;;5006718;28;19920;-61
2023/04/06 03:41:57;;;;;;;;;;;0.60;99.90;;;;;;5007695;28;19913;-60
2023/04/06 03:44:23;;;;;;;;;;;0.50;99.90;;;;;;5002649;28;20346;-58
2023/04/06 03:46:48;;;;;;;;;;;0.50;99.90;;;;;;5012877;28;19956;-61
2023/04/06 03:49:14;;;;;;;;;;;0.40;99.90;;;;;;5008583;28;19921;-59
2023/04/06 03:51:40;;;;;;;;;;;0.40;99.90;;;;;;5009004;28;19922;-59
2023/04/06 03:54:05;;;;;;;;;;;0.30;99.90;;;;;;5009586;28;20319;-58
2023/04/06 03:56:30;;;;;;;;;;;0.30;99.90;;;;;;5012475;28;19914;-62
2023/04/06 03:58:56;;;;;;;;;;;0.30;99.90;;;;;;5010210;28;19921;-59
2023/04/06 04:01:21;;;;;;;;;;;0.30;99.90;;;;;;5007343;28;20394;-61
2023/04/06 04:03:47;;;;;;;;;;;0.20;99.90;;;;;;5012199;28;19918;-61
2023/04/06 04:06:12;;;;;;;;;;;0.30;99.90;;;;;;5010534;28;19917;-60
2023/04/06 04:08:38;;;;;;;;;;;0.40;99.90;;;;;;5009470;28;20379;-61
2023/04/06 04:11:03;;;;;;;;;;;0.40;99.90;;;;;;5011891;28;20414;-61
2023/04/06 04:13:29;;;;;;;;;;;0.50;99.90;;;;;;5009882;28;19928;-60
2023/04/06 04:15:54;;;;;;;;;;;0.60;99.90;;;;;;5008881;28;19913;-60
2023/04/06 04:18:20;;;;;;;;;;;0.70;99.90;;;;;;5008480;28;19918;-62
2023/04/06 04:20:45;;;;;;;;;;;0.70;99.90;;;;;;5013008;28;19917;-59
2023/04/06 04:23:11;;;;;;;;;;;0.80;99.90;;;;;;5007402;28;19956;-57
2023/04/06 04:25:36;;;;;;;;;;;0.70;99.90;;;;;;5009004;28;20457;-62
2023/04/06 04:28:02;;;;;;;;;;;0.60;99.90;;;;;;5007222;28;19971;-62
2023/04/06 04:30:27;;;;;;;;;;;0.50;99.90;;;;;;5006738;28;20268;-61
2023/04/06 04:32:53;;;;;;;;;;;0.40;99.90;;;;;;5010235;28;19952;-61
2023/04/06 04:35:18;;;;;;;;;;;0.40;99.90;;;;;;5010133;28;20020;-62
2023/04/06 04:37:44;;;;;;;;;;;0.40;99.90;;;;;;5005977;28;20295;-61
2023/04/06 04:40:09;;;;;;;;;;;0.50;99.90;;;;;;5004110;28;19943;-61
2023/04/06 04:42:35;;;;;;;;;;;0.50;99.90;;;;;;5009616;28;20004;-68
2023/04/06 04:45:00;;;;;;;;;;;0.60;99.90;;;;;;5008570;28;20000;-62
2023/04/06 04:47:26;;;;;;;;;;;0.60;99.90;;;;;;5010673;28;19913;-62
2023/04/06 04:49:51;;;;;;;;;;;0.50;99.90;;;;;;5009446;28;19918;-60
2023/04/06 04:52:17;;;;;;;;;;;0.40;99.90;;;;;;5009234;28;19913;-61
2023/04/06 04:54:42;;;;;;;;;;;0.40;99.90;;;;;;5007495;28;20398;-63
2023/04/06 04:57:08;;;;;;;;;;;0.40;99.90;;;;;;5009343;28;19918;-62
2023/04/06 04:59:34;;;;;;;;;;;0.30;99.90;;;;;;5005625;28;20364;-60
2023/04/06 05:01:59;;;;;;;;;;;0.30;99.90;;;;;;5010282;28;20367;-56
2023/04/06 05:04:25;;;;;;;;;;;0.30;99.90;;;;;;5008802;28;19918;-58
2023/04/06 05:06:50;;;;;;;;;;;0.30;99.90;;;;;;5007491;28;19909;-55
2023/04/06 05:09:17;;;;;;;;;;;0.30;99.90;;;;;;5012852;28;19921;-61
2023/04/06 05:11:42;;;;;;;;;;;0.20;99.90;;;;;;5008303;28;20364;-64
2023/04/06 05:14:08;;;;;;;;;;;0.20;99.90;;;;;;5008217;28;19933;-61
2023/04/06 05:16:33;;;;;;;;;;;0.20;99.90;;;;;;5009086;28;19956;-60
2023/04/06 05:18:59;;;;;;;;;;;0.30;99.90;;;;;;5009868;28;20343;-57
2023/04/06 05:21:26;;;;;;;;;;;0.40;99.90;;;;;;5005734;28;19917;-63
2023/04/06 05:23:51;;;;;;;;;;;0.50;99.90;;;;;;5008847;28;19924;-58
2023/04/06 05:26:16;;;;;;;;;;;0.50;99.90;;;;;;5009263;28;19918;-58
2023/04/06 05:28:44;;;;;;;;;;;0.60;99.90;;;;;;5013520;28;19971;-61
2023/04/06 05:31:09;;;;;;;;;;;0.50;99.90;;;;;;5014266;28;19936;-61
2023/04/06 05:33:35;;;;;;;;;;;0.60;99.90;;;;;;5014223;28;20426;-60
2023/04/06 05:36:00;;;;;;;;;;;0.60;99.90;;;;;;5012473;28;19914;-60
2023/04/06 05:38:26;;;;;;;;;;;0.60;99.90;;;;;;5014480;28;19957;-62
2023/04/06 05:40:51;;;;;;;;;;;0.70;99.90;;;;;;5010840;28;20552;-58
2023/04/06 05:43:17;;;;;;;;;;;0.80;99.90;;;;;;5011288;28;19918;-61
2023/04/06 05:45:45;;;;;;;;;;;0.90;99.90;;;;;;5005048;28;19920;-59
2023/04/06 05:48:10;;;;;;;;;;;1.00;99.90;;;;;;5008039;28;19928;-61
2023/04/06 05:50:36;;;;;;;;;;;1.00;99.90;;;;;;5007621;28;20008;-58
2023/04/06 05:53:01;;;;;;;;;;;1.10;99.90;;;;;;5010271;28;19918;-59
2023/04/06 05:55:27;;;;;;;;;;;1.10;99.90;;;;;;5010102;28;19913;-59
2023/04/06 05:57:53;;;;;;;;;;;1.10;99.90;;;;;;5004205;28;19940;-61
2023/04/06 06:00:19;;;;;;;;;;;1.20;99.90;;;;;;5003936;28;19921;-57
2023/04/06 06:02:45;;;;;;;;;;;1.30;99.90;;;;;;5006099;28;19917;-59
2023/04/06 06:05:10;;;;;;;;;;;1.40;99.90;;;;;;5008256;28;20298;-60
2023/04/06 06:07:36;;;;;;;;;;;1.40;99.90;;;;;;5001797;28;19991;-60
2023/04/06 06:10:01;;;;;;;;;;;1.60;99.90;;;;;;5005272;28;19921;-60
2023/04/06 06:12:27;;;;;;;;;;;1.60;99.90;;;;;;5010216;28;20272;-57
2023/04/06 06:14:53;;;;;;;;;;;1.80;99.90;;;;;;5005710;28;19949;-61
2023/04/06 06:17:18;;;;;;;;;;;1.80;99.90;;;;;;5003393;28;20287;-60
2023/04/06 06:19:43;;;;;;;;;;;1.90;99.90;;;;;;5003291;28;19921;-60
2023/04/06 06:22:09;;;;;;;;;;;2.00;99.90;;;;;;5005617;28;19929;-61
2023/04/06 06:24:34;;;;;;;;;;;2.10;99.90;;;;;;5004121;28;19922;-58
2023/04/06 06:27:00;;;;;;;;;;;2.20;99.90;;;;;;5006516;28;19963;-60
2023/04/06 06:29:25;;;;;;;;;;;2.20;99.90;;;;;;5000027;28;19914;-60
2023/04/06 06:31:51;;;;;;;;;;;2.30;99.90;;;;;;5004989;28;19932;-59
2023/04/06 06:34:16;;;;;;;;;;;2.40;99.90;;;;;;5008190;28;20351;-61
2023/04/06 06:36:42;;;;;;;;;;;2.50;99.90;;;;;;5000332;28;20303;-62
2023/04/06 06:39:07;;;;;;;;;;;2.60;99.90;;;;;;4997762;28;19914;-59
2023/04/06 06:41:32;;;;;;;;;;;2.80;99.90;;;;;;5004901;28;19914;-60
2023/04/06 06:43:58;;;;;;;;;;;2.90;99.90;;;;;;5002993;28;19925;-61
2023/04/06 06:46:23;;;;;;;;;;;3.00;99.90;;;;;;5003499;28;19913;-59
2023/04/06 06:48:49;;;;;;;;;;;3.10;99.90;;;;;;5004217;28;19921;-60
2023/04/06 06:51:15;;;;;;;;;;;3.20;99.90;;;;;;5008964;28;19967;-59
2023/04/06 06:53:40;;;;;;;;;;;3.30;99.90;;;;;;5002830;28;19971;-61
2023/04/06 06:56:06;;;;;;;;;;;3.50;99.90;;;;;;5003170;28;19929;-61
2023/04/06 06:58:31;;;;;;;;;;;3.60;99.90;;;;;;5003187;28;19975;-59
2023/04/06 07:00:57;;;;;;;;;;;3.80;99.90;;;;;;5001496;28;20395;-61
2023/04/06 07:03:23;;;;;;;;;;;3.90;99.90;;;;;;5000154;28;20008;-62
2023/04/06 07:05:52;;;;;;;;;;;4.00;99.90;;;;;;5007377;28;20012;-63
2023/04/06 07:08:22;;;;;;;;;;;4.20;99.90;;;;;;5000031;28;19936;-60
2023/04/06 07:10:48;;;;;;;;;;;4.40;99.90;;;;;;5001307;28;20203;-60
2023/04/06 07:13:18;;;;;;;;;;;4.60;99.90;;;;;;4996874;28;19922;-65
2023/04/06 07:15:44;;;;;;;;;;;4.70;99.90;;;;;;5005953;28;19999;-60
2023/04/06 07:18:09;;;;;;;;;;;4.90;99.90;;;;;;5008117;28;20503;-64
2023/04/06 07:20:35;;;;;;;;;;;5.10;99.90;;;;;;5000152;28;19976;-60
2023/04/06 07:23:02;;;;;;;;;;;5.20;99.90;;;;;;4997897;28;20008;-61
2023/04/06 07:25:28;;;;;;;;;;;5.40;99.90;;;;;;5008318;28;19913;-63
2023/04/06 07:27:53;;;;;;;;;;;5.60;99.90;;;;;;5002304;28;20272;-62
2023/04/06 07:30:19;;;;;;;;;;;5.70;99.90;;;;;;5005012;28;19913;-61
2023/04/06 07:32:46;;;;;;;;;;;5.90;99.90;;;;;;5002078;28;20378;-62
2023/04/06 07:35:12;;;;;;;;;;;6.00;99.90;;;;;;5003908;28;20366;-59
2023/04/06 07:37:37;;;;;;;;;;;6.20;99.90;;;;;;5001295;28;20031;-59
2023/04/06 07:40:03;;;;;;;;;;;6.20;99.90;;;;;;5001615;28;19913;-60
2023/04/06 07:42:28;;;;;;;;;;;6.30;99.90;;;;;;5005906;28;19913;-62
2023/04/06 07:44:53;;;;;;;;;;;6.40;99.90;;;;;;5004568;28;19929;-63
2023/04/06 07:47:19;;;;;;;;;;;6.50;99.90;;;;;;5001339;28;20440;-63
2023/04/06 07:49:45;;;;;;;;;;;6.60;99.90;;;;;;5006663;28;19961;-62
2023/04/06 07:52:10;;;;;;;;;;;6.70;99.90;;;;;;5006941;28;19918;-62
2023/04/06 07:54:36;;;;;;;;;;;6.80;99.90;;;;;;5002087;28;19921;-62
2023/04/06 07:57:01;;;;;;;;;;;6.90;99.90;;;;;;5004081;28;19984;-58
2023/04/06 07:59:26;;;;;;;;;;;6.90;99.90;;;;;;5005456;28;19960;-58
2023/04/06 08:01:52;;;;;;;;;;;7.00;99.90;;;;;;5003328;28;19924;-60
2023/04/06 08:04:17;;;;;;;;;;;7.10;99.90;;;;;;5002634;28;19918;-58
2023/04/06 08:06:43;;;;;;;;;;;7.20;99.90;;;;;;5006170;28;19918;-60
2023/04/06 08:09:08;;;;;;;;;;;7.30;99.90;;;;;;5003069;28;20469;-60
2023/04/06 08:11:34;;;;;;;;;;;7.40;99.90;;;;;;5003464;28;20545;-57
2023/04/06 08:13:59;;;;;;;;;;;7.60;99.90;;;;;;5000784;28;20370;-59
2023/04/06 08:16:25;;;;;;;;;;;7.70;99.90;;;;;;5002245;28;19917;-58
2023/04/06 08:18:50;;;;;;;;;;;7.90;99.90;;;;;;5004561;28;19913;-58
2023/04/06 08:21:16;;;;;;;;;;;8.00;99.90;;;;;;5006593;28;20393;-60
2023/04/06 08:23:41;;;;;;;;;;;8.10;99.90;;;;;;5000451;28;20028;-59
2023/04/06 08:26:07;;;;;;;;;;;8.20;99.90;;;;;;4995131;28;19960;-56
2023/04/06 08:28:34;;;;;;;;;;;8.20;99.90;;;;;;5002134;28;19916;-58
2023/04/06 08:31:02;;;;;;;;;;;8.30;99.90;;;;;;5010264;28;20467;-58
2023/04/06 08:33:28;;;;;;;;;;;8.40;99.90;;;;;;5010983;28;19914;-57
2023/04/06 08:35:53;;;;;;;;;;;8.50;99.90;;;;;;5008862;28;19926;-57
2023/04/06 08:38:19;;;;;;;;;;;8.60;99.90;;;;;;5009568;28;19973;-57
2023/04/06 08:40:47;;;;;;;;;;;8.60;99.90;;;;;;5011220;28;19909;-57
2023/04/06 08:43:13;;;;;;;;;;;8.70;99.90;;;;;;5006441;28;19925;-60
2023/04/06 08:45:39;;;;;;;;;;;8.90;99.90;;;;;;5004093;28;19961;-59
2023/04/06 08:48:06;;;;;;;;;;;9.10;99.90;;;;;;5011517;28;19964;-58
2023/04/06 08:50:32;;;;;;;;;;;9.20;99.90;;;;;;5005201;28;19913;-60
2023/04/06 08:52:59;;;;;;;;;;;9.40;99.90;;;;;;5010704;28;19914;-57
2023/04/06 08:55:24;;;;;;;;;;;9.60;99.90;;;;;;5007436;28;19968;-59
2023/04/06 08:57:53;;;;;;;;;;;9.70;99.90;;;;;;5010390;28;20325;-55
2023/04/06 09:00:19;;;;;;;;;;;9.80;99.90;;;;;;5007667;28;19917;-54
2023/04/06 09:02:45;;;;;;;;;;;10.00;99.90;;;;;;5004859;28;19922;-56
2023/04/06 09:05:10;;;;;;;;;;;10.10;99.90;;;;;;5006236;28;19920;-57
2023/04/06 09:07:36;;;;;;;;;;;10.30;99.90;;;;;;5004094;28;19980;-57
2023/04/06 09:10:03;;;;;;;;;;;10.40;99.90;;;;;;5005627;28;19918;-57
2023/04/06 09:12:29;;;;;;;;;;;10.60;99.90;;;;;;5002999;28;19968;-56
2023/04/06 09:14:55;;;;;;;;;;;10.80;99.90;;;;;;5008085;28;19933;-57
2023/04/06 09:17:21;;;;;;;;;;;11.00;99.90;;;;;;5006476;28;19964;-55
2023/04/06 09:19:47;;;;;;;;;;;11.20;99.90;;;;;;5007871;28;19984;-55
2023/04/06 09:22:13;;;;;;;;;;;11.30;99.90;;;;;;5007550;28;19975;-57
2023/04/06 09:24:39;;;;;;;;;;;11.30;99.90;;;;;;5005229;28;19948;-60
2023/04/06 09:27:04;;;;;;;;;;;11.40;99.90;;;;;;5005813;28;20008;-57
2023/04/06 09:29:30;;;;;;;;;;;11.30;99.90;;;;;;5009529;28;20016;-58
2023/04/06 09:32:06;;;;;;;;;;;11.40;99.90;;;;;;5008598;28;19945;-62
2023/04/06 09:34:31;;;;;;;;;;;11.40;99.90;;;;;;5007823;28;19921;-57
2023/04/06 09:36:58;;;;;;;;;;;11.60;99.90;;;;;;5009571;28;19920;-60
2023/04/06 09:39:23;;;;;;;;;;;11.60;99.90;;;;;;5002007;28;19961;-59
2023/04/06 09:41:53;;;;;;;;;;;11.60;99.90;;;;;;5001786;28;19968;-60
2023/04/06 09:44:20;;;;;;;;;;;11.80;99.90;;;;;;5007003;28;19921;-58
2023/04/06 09:46:46;;;;;;;;;;;12.00;99.90;;;;;;5010088;28;19913;-57
2023/04/06 09:49:12;;;;;;;;;;;12.10;99.90;;;;;;5007780;28;19948;-60
2023/04/06 09:51:38;;;;;;;;;;;12.30;99.90;;;;;;5006782;28;20290;-58
2023/04/06 09:54:04;;;;;;;;;;;12.30;99.90;;;;;;5002280;28;19917;-61
2023/04/06 09:56:45;;;;;;;;;;;12.40;99.90;;;;;;5004400;28;19921;-59
2023/04/06 09:59:16;;;;;;;;;;;12.50;99.90;;;;;;5005751;28;22054;-62
2023/04/06 10:01:42;;;;;;;;;;;12.50;99.90;;;;;;5001946;28;19918;-59
2023/04/06 10:04:13;;;;;;;;;;;12.50;99.90;;;;;;5005339;28;19971;-57
2023/04/06 10:06:38;;;;;;;;;;;12.70;99.90;;;;;;5004107;28;19973;-61
2023/04/06 10:09:04;;;;;;;;;;;12.90;99.90;;;;;;4999341;28;20371;-57
2023/04/06 10:11:30;;;;;;;;;;;13.10;99.90;;;;;;5002459;28;19922;-62
2023/04/06 10:13:56;;;;;;;;;;;13.10;99.90;;;;;;5000981;28;19952;-57
2023/04/06 10:16:22;;;;;;;;;;;13.10;99.90;;;;;;5003078;28;19917;-60
2023/04/06 10:18:51;;;;;;;;;;;12.90;99.90;;;;;;5005602;28;19921;-60
2023/04/06 10:21:23;;;;;;;;;;;13.10;99.90;;;;;;5002229;28;19922;-60
2023/04/06 10:23:50;;;;;;;;;;;13.40;99.90;;;;;;5004034;28;20209;-60
2023/04/06 10:26:17;;;;;;;;;;;13.40;99.90;;;;;;4999225;28;20348;-62
2023/04/06 10:28:44;;;;;;;;;;;13.40;99.90;;;;;;5005876;28;19929;-56
2023/04/06 10:31:09;;;;;;;;;;;13.20;99.90;;;;;;5002677;28;20064;-56
2023/04/06 10:33:35;;;;;;;;;;;13.40;99.90;;;;;;5000937;28;20000;-62
2023/04/06 10:36:10;;;;;;;;;;;13.50;99.90;;;;;;5002027;28;19929;-60
2023/04/06 10:38:37;;;;;;;;;;;13.40;99.90;;;;;;5000339;28;19929;-61
2023/04/06 10:41:06;;;;;;;;;;;13.40;99.90;;;;;;5006808;28;20022;-54
2023/04/06 10:43:36;;;;;;;;;;;13.40;99.90;;;;;;5000106;28;19964;-57
2023/04/06 10:46:02;;;;;;;;;;;13.50;99.90;;;;;;5007377;28;19960;-56
2023/04/06 10:48:46;;;;;;;;;;;13.70;99.90;;;;;;5001707;28;20000;-54
2023/04/06 10:51:18;;;;;;;;;;;13.70;99.90;;;;;;5000260;28;19926;-57
2023/04/06 10:53:48;;;;;;;;;;;13.90;99.90;;;;;;4996545;28;19924;-58
2023/04/06 10:56:14;;;;;;;;;;;13.80;99.90;;;;;;5003346;28;20004;-60
2023/04/06 10:58:58;;;;;;;;;;;13.60;99.90;;;;;;5005432;28;19917;-59
2023/04/06 11:01:24;;;;;;;;;;;13.70;99.90;;;;;;5001739;28;20350;-58
2023/04/06 11:03:52;;;;;;;;;;;13.80;99.90;;;;;;5002932;28;19975;-55
2023/04/06 11:06:25;;;;;;;;;;;13.90;99.90;;;;;;5005601;28;19928;-59
2023/04/06 11:08:51;;;;;;;;;;;13.80;99.90;;;;;;4998709;28;19987;-58
2023/04/06 11:11:18;;;;;;;;;;;13.50;99.90;;;;;;5004693;28;19976;-59
2023/04/06 11:13:44;;;;;;;;;;;13.50;99.90;;;;;;5005618;28;19913;-58
2023/04/06 11:16:14;;;;;;;;;;;13.70;99.90;;;;;;5007544;28;20421;-57
2023/04/06 11:18:48;;;;;;;;;;;13.50;99.90;;;;;;5002746;28;20336;-59
2023/04/06 11:21:14;;;;;;;;;;;13.70;99.90;;;;;;5003765;28;19925;-57
2023/04/06 11:23:39;;;;;;;;;;;13.80;99.90;;;;;;4998918;28;19926;-58
2023/04/06 11:26:10;;;;;;;;;;;13.70;99.90;;;;;;4999730;28;19929;-61
2023/04/06 11:28:35;;;;;;;;;;;13.80;99.90;;;;;;5000760;28;19922;-58
2023/04/06 11:31:01;;;;;;;;;;;13.60;99.70;;;;;;5001990;28;19924;-57
2023/04/06 11:33:26;;;;;;;;;;;13.70;99.90;;;;;;5003251;28;20039;-58
2023/04/06 11:35:52;;;;;;;;;;;13.80;99.90;;;;;;5003352;28;19917;-58
2023/04/06 11:38:18;;;;;;;;;;;13.90;99.90;;;;;;5003900;28;19922;-61
2023/04/06 11:40:44;;;;;;;;;;;13.90;99.90;;;;;;5003917;28;20279;-60
2023/04/06 11:43:11;;;;;;;;;;;13.90;99.10;;;;;;5001555;28;19933;-57
2023/04/06 11:45:41;;;;;;;;;;;13.90;99.90;;;;;;5005446;28;19914;-55
2023/04/06 11:48:17;;;;;;;;;;;14.10;99.10;;;;;;5003794;28;19980;-60
2023/04/06 11:50:42;;;;;;;;;;;14.10;99.90;;;;;;5001335;28;20368;-58
2023/04/06 11:53:07;;;;;;;;;;;14.20;99.20;;;;;;5006921;28;19914;-58
2023/04/06 11:55:37;;;;;;;;;;;14.20;99.60;;;;;;5007374;28;19914;-60
2023/04/06 11:58:03;;;;;;;;;;;14.30;99.90;;;;;;5003369;28;19980;-57
2023/04/06 12:00:34;;;;;;;;;;;14.30;97.90;;;;;;5003868;28;21278;-60
2023/04/06 12:02:59;;;;;;;;;;;14.50;98.50;;;;;;4998753;28;20371;-60
2023/04/06 12:05:25;;;;;;;;;;;14.50;99.00;;;;;;5005151;28;19920;-59
2023/04/06 12:07:50;;;;;;;;;;;14.50;98.10;;;;;;5009553;28;19915;-57
2023/04/06 12:10:16;;;;;;;;;;;14.50;98.50;;;;;;5005126;28;19977;-55
2023/04/06 12:12:41;;;;;;;;;;;14.40;96.40;;;;;;5008054;28;19918;-59
2023/04/06 12:15:07;;;;;;;;;;;14.40;96.70;;;;;;5010213;28;19923;-59
2023/04/06 12:17:32;;;;;;;;;;;14.60;97.50;;;;;;5003783;28;20007;-57
2023/04/06 12:19:58;;;;;;;;;;;14.20;96.30;;;;;;5006122;28;20414;-55
2023/04/06 12:22:23;;;;;;;;;;;14.20;96.70;;;;;;5008201;28;19967;-60
2023/04/06 12:24:49;;;;;;;;;;;14.10;95.90;;;;;;5008825;28;19917;-62
2023/04/06 12:27:14;;;;;;;;;;;14.30;96.70;;;;;;5002726;28;19960;-57
2023/04/06 12:29:40;;;;;;;;;;;14.20;96.90;;;;;;5008918;28;19913;-59
2023/04/06 12:32:06;;;;;;;;;;;14.20;97.10;;;;;;5009166;28;20298;-56
2023/04/06 12:34:31;;;;;;;;;;;14.40;97.70;;;;;;5010021;28;20029;-60
2023/04/06 12:36:57;;;;;;;;;;;14.30;97.90;;;;;;5009522;28;19913;-57
2023/04/06 12:39:22;;;;;;;;;;;14.10;97.50;;;;;;5009853;28;19917;-58
2023/04/06 12:41:48;;;;;;;;;;;14.10;97.20;;;;;;5007192;28;19972;-56
2023/04/06 12:44:13;;;;;;;;;;;14.10;97.60;;;;;;5005838;28;19924;-59
2023/04/06 12:46:39;;;;;;;;;;;14.30;98.80;;;;;;5004180;28;20431;-58
2023/04/06 12:49:04;;;;;;;;;;;14.30;97.80;;;;;;5009318;28;19940;-57
2023/04/06 12:51:31;;;;;;;;;;;14.20;98.40;;;;;;5008382;28;19972;-56
2023/04/06 12:53:56;;;;;;;;;;;14.30;98.10;;;;;;5009333;28;19920;-57
2023/04/06 12:56:22;;;;;;;;;;;14.10;98.30;;;;;;5007765;28;20028;-60
2023/04/06 12:58:48;;;;;;;;;;;14.20;98.60;;;;;;5009646;28;19921;-61
2023/04/06 13:01:13;;;;;;;;;;;14.10;99.20;;;;;;5006690;28;19913;-58
2023/04/06 13:03:39;;;;;;;;;;;14.00;99.10;;;;;;5008129;28;19932;-57
2023/04/06 13:06:05;;;;;;;;;;;14.00;99.90;;;;;;5003819;28;20031;-62
2023/04/06 13:08:30;;;;;;;;;;;13.70;99.90;;;;;;5010856;28;20008;-61
2023/04/06 13:10:56;;;;;;;;;;;13.40;99.90;;;;;;5006016;28;19921;-59
2023/04/06 13:13:25;;;;;;;;;;;13.50;99.90;;;;;;5004900;28;20575;-60
2023/04/06 13:15:51;;;;;;;;;;;13.50;99.90;;;;;;5009986;28;19920;-59
2023/04/06 13:18:17;;;;;;;;;;;13.40;99.90;;;;;;5005752;28;19917;-59
2023/04/06 13:20:42;;;;;;;;;;;13.40;99.90;;;;;;5007867;28;20485;-57
2023/04/06 13:23:08;;;;;;;;;;;13.30;99.90;;;;;;5011783;28;19968;-59
2023/04/06 13:25:34;;;;;;;;;;;13.10;99.90;;;;;;5005649;28;20063;-56
2023/04/06 13:27:59;;;;;;;;;;;13.30;99.90;;;;;;5011282;28;19920;-60
2023/04/06 13:30:25;;;;;;;;;;;13.30;99.90;;;;;;5009301;28;20401;-56
2023/04/06 13:32:51;;;;;;;;;;;13.10;99.90;;;;;;5009904;28;19913;-61
2023/04/06 13:35:16;;;;;;;;;;;13.10;99.90;;;;;;5009607;28;19960;-61
2023/04/06 13:37:42;;;;;;;;;;;12.90;99.90;;;;;;5010741;28;19971;-60
2023/04/06 13:40:07;;;;;;;;;;;12.80;99.90;;;;;;5007606;28;19921;-58
2023/04/06 13:42:34;;;;;;;;;;;12.40;99.90;;;;;;5004905;28;19917;-57
2023/04/06 13:45:00;;;;;;;;;;;12.40;99.90;;;;;;5010315;28;19918;-62
2023/04/06 13:47:26;;;;;;;;;;;12.30;99.90;;;;;;5010113;28;20406;-59
2023/04/06 13:49:52;;;;;;;;;;;12.10;99.90;;;;;;5005901;28;20551;-58
2023/04/06 13:52:18;;;;;;;;;;;12.10;99.90;;;;;;5000844;28;19921;-64
2023/04/06 13:54:44;;;;;;;;;;;11.90;99.90;;;;;;5007778;28;19922;-55
2023/04/06 13:57:09;;;;;;;;;;;11.90;99.90;;;;;;5007121;28;19913;-59
2023/04/06 13:59:35;;;;;;;;;;;11.90;99.90;;;;;;5010362;28;19917;-62
2023/04/06 14:02:01;;;;;;;;;;;11.70;99.90;;;;;;5006612;28;20422;-59
2023/04/06 14:04:27;;;;;;;;;;;11.80;99.90;;;;;;5008171;28;19921;-59
2023/04/06 14:06:52;;;;;;;;;;;11.80;99.90;;;;;;5008532;28;20632;-58
2023/04/06 14:09:18;;;;;;;;;;;11.90;99.90;;;;;;5004357;28;19918;-61
2023/04/06 14:11:43;;;;;;;;;;;11.90;99.90;;;;;;5002952;28;19913;-58
2023/04/06 14:14:09;;;;;;;;;;;11.80;99.90;;;;;;5005351;28;20410;-60
2023/04/06 14:16:35;;;;;;;;;;;12.00;99.90;;;;;;5007603;28;19917;-58
2023/04/06 14:19:00;;;;;;;;;;;12.00;99.90;;;;;;5006830;28;20385;-60